Time;durP1;ratioP1;P1;durP2;ratioP2;P2;SDS_P1;SDS_P2;PMS_P1;PMS_P2;Temp;Humidity;BMP_temperature;BMP_pressure;BME280_temperature;BME280_humidity;BME280_pressure;Samples;Min_cycle;Max_cycle;Signal;HPM_P1;HPM_P2
2021/11/16 00:01:22;;;;;;;22.17;11.33;;;7.10;99.90;;;7.89;100.00;98731.50;5059370;28;20465;-81
2021/11/16 00:03:53;;;;;;;21.23;11.53;;;7.10;99.90;;;7.89;100.00;98737.53;5066954;28;20460;-81
2021/11/16 00:06:23;;;;;;;28.50;13.80;;;7.10;99.90;;;7.89;100.00;98736.72;5069617;28;21059;-81
2021/11/16 00:08:51;;;;;;;22.10;12.10;;;7.10;99.90;;;7.89;100.00;98736.72;5065124;28;20807;-81
2021/11/16 00:11:20;;;;;;;24.17;12.33;;;7.10;99.90;;;7.90;100.00;98739.19;5059291;28;20495;-81
2021/11/16 00:13:53;;;;;;;21.87;12.40;;;7.10;99.90;;;7.91;100.00;98734.78;5065407;28;20471;-81
2021/11/16 00:16:21;;;;;;;26.90;13.47;;;7.10;99.90;;;7.88;100.00;98735.88;5065594;28;20521;-80
2021/11/16 00:18:57;;;;;;;22.53;12.13;;;7.10;99.90;;;7.91;100.00;98740.00;5066993;28;20460;-81
2021/11/16 00:21:27;;;;;;;18.37;11.60;;;7.10;99.90;;;7.90;100.00;98733.16;5064797;28;20459;-81
2021/11/16 00:23:59;;;;;;;25.63;12.67;;;7.10;99.90;;;7.90;100.00;98731.38;5066669;28;20515;-81
2021/11/16 00:26:28;;;;;;;19.77;11.23;;;7.10;99.90;;;7.89;100.00;98727.13;5067176;28;20491;-81
2021/11/16 00:28:57;;;;;;;22.23;11.73;;;7.10;99.90;;;7.91;100.00;98729.59;5065183;28;20453;-81
2021/11/16 00:31:26;;;;;;;18.57;11.07;;;7.10;99.90;;;7.90;100.00;98728.75;5065488;28;20456;-81
2021/11/16 00:33:57;;;;;;;26.23;13.57;;;7.10;99.90;;;7.92;100.00;98726.81;5064119;28;20448;-80
2021/11/16 00:36:28;;;;;;;22.77;13.60;;;7.10;99.90;;;7.92;100.00;98731.19;5070532;28;20921;-81
2021/11/16 00:38:58;;;;;;;22.17;12.13;;;7.10;99.90;;;7.90;100.00;98727.94;5072102;28;20521;-81
2021/11/16 00:41:28;;;;;;;22.10;12.00;;;7.10;99.90;;;7.92;100.00;98725.97;5072949;28;20462;-81
2021/11/16 00:43:57;;;;;;;19.07;11.50;;;7.20;99.90;;;7.93;100.00;98723.25;5060348;28;20456;-81
2021/11/16 00:46:27;;;;;;;19.10;11.27;;;7.20;99.90;;;7.93;100.00;98719.81;5069814;28;20580;-81
2021/11/16 00:48:58;;;;;;;21.17;11.83;;;7.20;99.90;;;7.92;100.00;98720.78;5064998;28;20484;-81
2021/11/16 00:51:27;;;;;;;26.23;12.40;;;7.30;99.90;;;7.90;100.00;98727.94;5064816;28;20471;-81
2021/11/16 00:53:55;;;;;;;26.60;12.37;;;7.40;99.90;;;7.86;100.00;98726.59;5060792;28;20464;-81
2021/11/16 00:56:27;;;;;;;23.13;12.50;;;7.30;99.90;;;7.85;100.00;98719.75;5061712;28;20502;-81
2021/11/16 00:58:55;;;;;;;21.37;12.17;;;7.20;99.90;;;7.86;100.00;98724.00;5060136;28;20492;-80
2021/11/16 01:01:24;;;;;;;25.10;13.47;;;7.10;99.90;;;7.89;100.00;98726.28;5058756;28;20518;-81
2021/11/16 01:03:54;;;;;;;23.80;12.70;;;7.10;99.90;;;7.90;100.00;98720.94;5061210;28;20971;-81
2021/11/16 01:06:24;;;;;;;20.83;11.57;;;7.20;99.90;;;7.91;100.00;98722.56;5062430;28;20492;-80
2021/11/16 01:08:53;;;;;;;26.23;13.17;;;7.20;99.90;;;7.92;100.00;98715.56;5067623;28;20460;-81
2021/11/16 01:11:22;;;;;;;22.47;11.97;;;7.20;99.90;;;7.93;100.00;98720.63;5061590;28;20444;-81
2021/11/16 01:13:51;;;;;;;21.50;12.67;;;7.20;99.90;;;7.95;100.00;98715.25;5064093;28;20487;-80
2021/11/16 01:16:19;;;;;;;26.23;11.73;;;7.20;99.90;;;7.96;100.00;98722.13;5065275;28;20796;-81
2021/11/16 01:18:48;;;;;;;26.00;12.53;;;7.30;99.90;;;7.96;100.00;98714.28;5058657;28;20463;-80
2021/11/16 01:21:17;;;;;;;22.67;12.53;;;7.20;99.90;;;7.96;100.00;98711.69;5060088;28;20476;-80
2021/11/16 01:23:47;;;;;;;33.13;14.13;;;7.20;99.90;;;7.95;100.00;98710.06;5059342;28;21033;-81
2021/11/16 01:26:16;;;;;;;24.17;13.07;;;7.20;99.90;;;7.93;100.00;98707.63;5062430;28;20487;-81
2021/11/16 01:28:44;;;;;;;20.80;13.30;;;7.20;99.90;;;7.95;100.00;98708.28;5065022;28;20457;-80
2021/11/16 01:31:15;;;;;;;24.07;12.50;;;7.20;99.90;;;7.93;100.00;98709.41;5056913;28;20486;-81
2021/11/16 01:33:48;;;;;;;19.03;11.07;;;7.20;99.90;;;7.91;100.00;98711.34;5055077;28;20483;-81
2021/11/16 01:36:18;;;;;;;21.80;12.20;;;7.20;99.90;;;7.89;100.00;98710.69;5064104;28;20465;-81
2021/11/16 01:38:50;;;;;;;21.20;12.73;;;7.20;99.90;;;7.91;100.00;98703.53;5067940;28;20515;-80
2021/11/16 01:41:27;;;;;;;23.53;12.00;;;7.20;99.90;;;7.93;100.00;98702.41;5058939;28;20467;-81
2021/11/16 01:43:56;;;;;;;25.30;11.30;;;7.20;99.90;;;7.95;100.00;98702.25;5063642;28;20464;-80
2021/11/16 01:46:27;;;;;;;19.70;11.40;;;7.20;99.90;;;7.95;100.00;98704.84;5056905;28;20558;-81
2021/11/16 01:48:59;;;;;;;22.63;12.43;;;7.20;99.90;;;7.91;100.00;98703.53;5057874;28;21326;-81
2021/11/16 01:51:31;;;;;;;20.30;11.50;;;7.30;99.90;;;7.90;100.00;98702.72;5067327;28;21027;-81
2021/11/16 01:54:04;;;;;;;24.03;11.03;;;7.30;99.90;;;7.90;100.00;98699.28;5067464;28;20464;-81
2021/11/16 01:56:38;;;;;;;20.37;10.80;;;7.20;99.90;;;7.88;100.00;98696.84;5065734;28;21073;-80
2021/11/16 01:59:08;;;;;;;23.30;13.13;;;7.20;99.90;;;7.88;100.00;98699.44;5060743;28;20497;-81
2021/11/16 02:01:40;;;;;;;26.10;12.50;;;7.20;99.90;;;7.90;100.00;98689.72;5061372;28;20467;-81
2021/11/16 02:04:10;;;;;;;22.40;11.87;;;7.20;99.90;;;7.91;100.00;98698.34;5068754;28;20818;-81
2021/11/16 02:06:42;;;;;;;24.97;12.50;;;7.20;99.90;;;7.89;100.00;98697.66;5060606;28;20487;-80
2021/11/16 02:09:15;;;;;;;22.13;11.80;;;7.20;99.90;;;7.91;100.00;98704.34;5065727;28;20486;-81
2021/11/16 02:11:46;;;;;;;22.87;13.57;;;7.30;99.90;;;7.87;100.00;98700.44;5064649;28;20508;-80
2021/11/16 02:14:18;;;;;;;23.93;12.57;;;7.30;99.90;;;7.87;100.00;98697.81;5063156;28;20540;-81
2021/11/16 02:16:49;;;;;;;25.40;13.77;;;7.20;99.90;;;7.87;100.00;98691.78;5064280;28;20463;-81
2021/11/16 02:19:21;;;;;;;20.97;12.63;;;7.30;99.90;;;7.89;100.00;98695.06;5068567;28;20456;-80
2021/11/16 02:21:51;;;;;;;23.43;11.87;;;7.30;99.90;;;7.90;100.00;98689.72;5069803;28;20925;-81
2021/11/16 02:24:21;;;;;;;22.10;11.90;;;7.30;99.90;;;7.88;100.00;98685.63;5067875;28;20682;-80
2021/11/16 02:26:50;;;;;;;23.30;13.13;;;7.20;99.90;;;7.86;100.00;98679.75;5067175;28;20496;-81
2021/11/16 02:29:19;;;;;;;21.67;11.20;;;7.20;99.90;;;7.84;100.00;98686.91;5068172;28;20443;-81
2021/11/16 02:31:54;;;;;;;19.70;11.70;;;7.10;99.90;;;7.87;100.00;98681.38;5064531;28;20495;-81
2021/11/16 02:34:24;;;;;;;25.43;12.20;;;7.20;99.90;;;7.87;100.00;98682.22;5065424;28;21797;-81
2021/11/16 02:36:54;;;;;;;26.57;13.57;;;7.30;99.90;;;7.88;100.00;98677.81;5058910;28;20530;-81
2021/11/16 02:39:23;;;;;;;24.17;13.20;;;7.20;99.90;;;7.89;100.00;98674.22;5066866;28;20446;-81
2021/11/16 02:41:55;;;;;;;21.80;11.27;;;7.30;99.90;;;7.87;100.00;98665.75;5059043;28;20460;-81
2021/11/16 02:44:24;;;;;;;25.27;12.67;;;7.30;99.90;;;7.80;100.00;98669.94;5067825;28;20464;-81
2021/11/16 02:46:53;;;;;;;21.63;13.13;;;7.20;99.90;;;7.82;100.00;98668.00;5061141;28;20504;-81
2021/11/16 02:49:22;;;;;;;24.87;13.47;;;7.20;99.90;;;7.85;100.00;98660.69;5065646;28;20995;-80
2021/11/16 02:51:52;;;;;;;24.97;12.97;;;7.30;99.90;;;7.87;100.00;98663.16;5059172;28;20508;-81
2021/11/16 02:54:22;;;;;;;22.80;12.33;;;7.30;99.90;;;7.86;100.00;98658.91;5067805;28;20452;-80
2021/11/16 02:56:52;;;;;;;21.27;12.80;;;7.30;99.90;;;7.87;100.00;98665.75;5060092;28;20467;-81
2021/11/16 02:59:21;;;;;;;23.90;12.40;;;7.20;99.90;;;7.88;100.00;98667.41;5060977;28;20518;-81
2021/11/16 03:01:49;;;;;;;29.07;13.10;;;7.40;99.90;;;7.89;100.00;98663.81;5058065;28;20513;-81
2021/11/16 03:04:23;;;;;;;24.00;13.03;;;7.40;99.90;;;7.87;100.00;98665.75;5056650;28;20465;-81
2021/11/16 03:06:53;;;;;;;27.43;13.27;;;7.30;99.90;;;7.86;100.00;98661.50;5062925;28;20488;-81
2021/11/16 03:09:25;;;;;;;22.13;13.13;;;7.20;99.90;;;7.85;100.00;98660.69;5060849;28;20452;-81
2021/11/16 03:11:54;;;;;;;27.23;12.57;;;7.20;99.90;;;7.88;100.00;98664.81;5063683;28;20464;-81
2021/11/16 03:14:22;;;;;;;22.87;12.90;;;7.10;99.90;;;7.88;100.00;98668.19;5061650;28;20456;-80
2021/11/16 03:16:51;;;;;;;21.80;12.50;;;7.20;99.90;;;7.87;100.00;98666.59;5064829;28;20529;-80
2021/11/16 03:19:20;;;;;;;19.03;12.10;;;7.30;99.90;;;7.87;100.00;98661.38;5068117;28;20456;-80
2021/11/16 03:21:55;;;;;;;23.57;12.30;;;7.30;99.90;;;7.87;100.00;98657.94;5056637;28;20465;-81
2021/11/16 03:24:32;;;;;;;26.60;12.77;;;7.20;99.90;;;7.85;100.00;98658.09;5068511;28;20468;-81
2021/11/16 03:27:03;;;;;;;30.27;13.97;;;7.20;99.90;;;7.85;100.00;98657.28;5067260;28;20494;-81
2021/11/16 03:29:32;;;;;;;29.33;13.33;;;7.10;99.90;;;7.83;100.00;98648.81;5058308;28;20461;-81
2021/11/16 03:32:06;;;;;;;24.10;13.47;;;7.10;99.90;;;7.85;100.00;98646.84;5056676;28;20462;-80
2021/11/16 03:34:36;;;;;;;24.80;13.83;;;7.10;99.90;;;7.83;100.00;98638.41;5069031;28;20459;-81
2021/11/16 03:37:06;;;;;;;26.03;13.30;;;7.10;99.90;;;7.82;100.00;98642.78;5063119;28;20525;-81
2021/11/16 03:39:38;;;;;;;27.43;13.93;;;7.10;99.90;;;7.83;100.00;98638.41;5067634;28;20456;-81
2021/11/16 03:42:08;;;;;;;25.67;13.43;;;7.20;99.90;;;7.79;100.00;98637.06;5065537;28;20457;-81
2021/11/16 03:44:38;;;;;;;26.53;14.03;;;7.10;99.90;;;7.77;100.00;98645.06;5067057;28;20448;-81
2021/11/16 03:47:08;;;;;;;23.60;12.43;;;7.20;99.90;;;7.79;100.00;98642.28;5069587;28;20876;-81
2021/11/16 03:49:36;;;;;;;23.27;14.17;;;7.20;99.90;;;7.74;100.00;98628.94;5068378;28;20494;-81
2021/11/16 03:52:06;;;;;;;27.63;13.20;;;7.20;99.90;;;7.70;100.00;98638.00;5070315;28;20464;-83
2021/11/16 03:54:39;;;;;;;25.20;13.50;;;7.00;99.90;;;7.67;100.00;98635.72;5070297;28;20920;-83
2021/11/16 03:57:08;;;;;;;23.43;13.07;;;7.00;99.90;;;7.65;100.00;98643.66;5066556;28;20857;-83
2021/11/16 03:59:37;;;;;;;26.00;14.47;;;7.00;99.90;;;7.66;100.00;98631.47;5068270;28;20505;-83
2021/11/16 04:02:06;;;;;;;24.07;12.63;;;7.00;99.90;;;7.67;100.00;98633.13;5065394;28;20544;-83
2021/11/16 04:04:35;;;;;;;25.03;13.00;;;7.10;99.90;;;7.60;100.00;98636.31;5064211;28;20500;-83
2021/11/16 04:07:04;;;;;;;30.60;13.97;;;7.00;99.90;;;7.64;100.00;98638.59;5061715;28;20493;-82
2021/11/16 04:09:33;;;;;;;25.23;13.13;;;7.00;99.90;;;7.60;100.00;98641.50;5064083;28;20461;-83
2021/11/16 04:12:03;;;;;;;26.40;14.63;;;6.90;99.90;;;7.60;100.00;98641.50;5068015;28;20456;-82
2021/11/16 04:14:35;;;;;;;25.73;13.00;;;6.80;99.90;;;7.55;100.00;98641.16;5065531;28;20988;-83
2021/11/16 04:17:05;;;;;;;29.00;14.23;;;6.80;99.90;;;7.59;100.00;98647.72;5065311;28;20876;-83
2021/11/16 04:19:33;;;;;;;25.27;13.70;;;6.90;99.90;;;7.55;100.00;98635.97;5067599;28;20486;-82
2021/11/16 04:22:02;;;;;;;25.43;14.50;;;6.90;99.90;;;7.53;100.00;98637.88;5065989;28;20460;-83
2021/11/16 04:24:31;;;;;;;26.50;14.17;;;6.80;99.90;;;7.51;100.00;98633.81;5070023;28;20452;-82
2021/11/16 04:26:59;;;;;;;23.27;13.50;;;6.80;99.90;;;7.50;100.00;98638.19;5068532;28;20492;-82
2021/11/16 04:29:29;;;;;;;27.10;13.10;;;6.80;99.90;;;7.47;100.00;98643.72;5065670;28;20903;-82
2021/11/16 04:31:58;;;;;;;23.73;12.50;;;6.80;99.90;;;7.52;100.00;98644.09;5065242;28;20554;-83
2021/11/16 04:34:27;;;;;;;28.70;13.40;;;7.00;99.90;;;7.49;100.00;98647.00;5066429;28;20521;-82
2021/11/16 04:36:55;;;;;;;24.40;12.87;;;6.90;99.90;;;7.47;100.00;98640.28;5066802;28;20464;-82
2021/11/16 04:39:24;;;;;;;27.93;13.80;;;7.00;99.90;;;7.43;100.00;98637.19;5056493;28;20494;-83
2021/11/16 04:41:53;;;;;;;24.13;12.60;;;6.80;99.90;;;7.45;100.00;98637.84;5063783;28;20457;-83
2021/11/16 04:44:21;;;;;;;28.07;13.40;;;6.80;99.90;;;7.44;100.00;98638.81;5069657;28;20449;-83
2021/11/16 04:46:51;;;;;;;28.40;14.33;;;6.70;99.90;;;7.46;100.00;98636.88;5061147;28;20487;-81
2021/11/16 04:49:24;;;;;;;28.83;14.70;;;6.80;99.90;;;7.48;100.00;98631.53;5055053;28;20509;-82
2021/11/16 04:52:09;;;;;;;27.17;12.70;;;6.70;99.90;;;7.54;100.00;98633.50;5060601;28;21015;-80
2021/11/16 04:54:58;;;;;;;29.60;12.67;;;6.70;99.90;;;7.55;100.00;98630.75;5065642;28;20452;-80
2021/11/16 05:03:09;;;;;;;32.50;13.77;;;6.80;99.90;;;7.62;100.00;98625.75;5053123;28;20449;-80
2021/11/16 05:05:37;;;;;;;25.70;14.43;;;6.90;99.90;;;7.63;100.00;98622.19;5063402;28;20521;-83
2021/11/16 05:08:06;;;;;;;26.87;16.30;;;6.90;99.90;;;7.60;100.00;98627.72;5064848;28;20500;-82
2021/11/16 05:10:35;;;;;;;29.60;15.30;;;6.90;99.90;;;7.60;100.00;98628.50;5062846;28;20525;-81
2021/11/16 05:13:04;;;;;;;24.93;13.97;;;7.00;99.90;;;7.53;100.00;98631.91;5056972;28;20464;-81
2021/11/16 05:15:34;;;;;;;25.17;12.93;;;6.90;99.90;;;7.49;100.00;98631.38;5058667;28;20509;-81
2021/11/16 05:18:04;;;;;;;22.53;12.47;;;6.90;99.90;;;7.47;100.00;98628.09;5067312;28;20831;-81
2021/11/16 05:20:33;;;;;;;31.83;14.27;;;7.00;99.90;;;7.47;100.00;98629.88;5069662;28;20456;-80
2021/11/16 05:23:02;;;;;;;29.10;14.30;;;6.90;99.90;;;7.48;100.00;98634.94;5061876;28;20445;-81
2021/11/16 05:25:34;;;;;;;26.17;13.67;;;6.90;99.90;;;7.50;100.00;98633.00;5065535;28;20509;-79
2021/11/16 05:28:05;;;;;;;27.27;14.40;;;6.90;99.90;;;7.50;100.00;98635.59;5060286;28;20975;-82
2021/11/16 05:30:35;;;;;;;28.40;14.07;;;6.90;99.90;;;7.47;100.00;98633.31;5058785;28;20452;-79
2021/11/16 05:33:05;;;;;;;30.37;14.60;;;6.80;99.90;;;7.47;100.00;98629.88;5063297;28;20460;-79
2021/11/16 05:35:33;;;;;;;28.60;14.00;;;6.70;99.90;;;7.51;100.00;98626.84;5070059;28;20868;-80
2021/11/16 05:38:02;;;;;;;29.70;14.83;;;6.80;99.90;;;7.54;100.00;98629.13;5063041;28;20450;-80
2021/11/16 05:40:31;;;;;;;25.53;13.17;;;6.90;99.90;;;7.54;100.00;98623.09;5071514;28;20925;-80
2021/11/16 05:43:01;;;;;;;25.87;14.30;;;6.90;99.90;;;7.54;100.00;98629.13;5073262;28;20849;-80
2021/11/16 05:45:30;;;;;;;25.43;13.57;;;7.00;99.90;;;7.54;100.00;98628.31;5073271;28;21066;-81
2021/11/16 05:47:58;;;;;;;23.47;13.03;;;6.90;99.90;;;7.52;100.00;98633.69;5063214;28;20574;-81
2021/11/16 05:50:30;;;;;;;24.20;13.47;;;6.90;99.90;;;7.47;100.00;98629.88;5067510;28;20510;-80
2021/11/16 05:52:59;;;;;;;27.07;13.17;;;6.70;99.90;;;7.46;100.00;98630.88;5071000;28;20468;-81
2021/11/16 05:55:28;;;;;;;23.97;12.40;;;6.80;99.90;;;7.47;100.00;98632.47;5070918;28;20445;-81
2021/11/16 05:57:56;;;;;;;27.07;12.83;;;6.70;99.90;;;7.47;100.00;98635.09;5070984;28;20448;-81
2021/11/16 06:00:25;;;;;;;28.53;13.90;;;6.60;99.90;;;7.47;100.00;98637.69;5068106;28;20468;-80
2021/11/16 06:02:55;;;;;;;24.80;13.30;;;6.60;99.90;;;7.48;100.00;98639.34;5066516;28;20456;-80
2021/11/16 06:05:23;;;;;;;23.20;13.50;;;6.60;99.90;;;7.47;100.00;98642.88;5070491;28;20483;-80
2021/11/16 06:07:53;;;;;;;35.87;14.17;;;6.60;99.90;;;7.48;100.00;98647.97;5065602;28;21051;-80
2021/11/16 06:10:22;;;;;;;28.37;15.90;;;6.60;99.90;;;7.50;100.00;98640.81;5066504;28;20441;-81
2021/11/16 06:12:51;;;;;;;26.30;15.30;;;6.60;99.90;;;7.51;100.00;98646.81;5070446;28;20448;-80
2021/11/16 06:15:20;;;;;;;28.00;14.63;;;6.60;99.90;;;7.50;100.00;98643.41;5071067;28;20455;-80
2021/11/16 06:17:48;;;;;;;25.50;14.77;;;6.60;99.90;;;7.51;100.00;98655.44;5067825;28;20452;-80
2021/11/16 06:20:21;;;;;;;26.10;14.30;;;6.60;99.90;;;7.51;100.00;98660.66;5068593;28;20478;-80
2021/11/16 06:22:50;;;;;;;32.27;15.73;;;6.70;99.90;;;7.51;100.00;98663.25;5070651;28;21022;-81
2021/11/16 06:25:21;;;;;;;28.07;14.87;;;6.70;99.90;;;7.49;100.00;98667.81;5070178;28;20961;-80
2021/11/16 06:27:50;;;;;;;23.43;13.17;;;6.70;99.90;;;7.50;100.00;98664.22;5070310;28;20501;-80
2021/11/16 06:30:18;;;;;;;25.63;14.87;;;6.70;99.90;;;7.52;100.00;98662.31;5070259;28;20493;-81
2021/11/16 06:32:47;;;;;;;26.20;12.93;;;6.80;99.90;;;7.51;100.00;98668.47;5070585;28;20489;-81
2021/11/16 06:35:21;;;;;;;27.00;13.23;;;6.80;99.90;;;7.52;100.00;98670.09;5069397;28;20452;-80
2021/11/16 06:37:52;;;;;;;29.53;13.30;;;6.80;99.90;;;7.51;100.00;98673.66;5063734;28;21016;-80
2021/11/16 06:40:22;;;;;;;23.17;13.17;;;6.80;99.90;;;7.52;100.00;98677.91;5070259;28;20440;-80
2021/11/16 06:42:51;;;;;;;25.37;14.13;;;6.70;99.90;;;7.53;100.00;98679.53;5070408;28;20455;-80
2021/11/16 06:45:20;;;;;;;29.53;14.97;;;6.70;99.90;;;7.52;100.00;98688.31;5069965;28;20476;-81
2021/11/16 06:47:48;;;;;;;26.57;12.80;;;6.70;99.90;;;7.51;100.00;98691.88;5068350;28;20452;-81
2021/11/16 06:50:18;;;;;;;26.80;13.47;;;6.70;99.90;;;7.54;100.00;98690.75;5068208;28;20503;-80
2021/11/16 06:52:47;;;;;;;27.10;13.37;;;6.80;99.90;;;7.56;100.00;98692.25;5078719;28;20474;-80
2021/11/16 06:55:17;;;;;;;21.13;12.63;;;6.80;99.90;;;7.57;100.00;98696.47;5070663;28;20456;-80
2021/11/16 06:57:47;;;;;;;25.17;11.93;;;6.80;99.90;;;7.57;100.00;98690.44;5074249;28;20452;-80
2021/11/16 07:00:16;;;;;;;21.60;11.23;;;6.80;99.90;;;7.55;100.00;98697.59;5070707;28;20459;-81
2021/11/16 07:02:58;;;;;;;26.90;11.67;;;6.70;99.90;;;7.53;100.00;98692.53;5074203;28;20983;-80
2021/11/16 07:05:29;;;;;;;21.40;11.80;;;6.70;99.90;;;7.51;100.00;98697.09;5073940;28;20858;-80
2021/11/16 07:08:00;;;;;;;20.20;12.00;;;6.70;99.90;;;7.51;100.00;98691.88;5072909;28;20444;-81
2021/11/16 07:10:32;;;;;;;22.43;10.77;;;6.70;99.90;;;7.49;100.00;98693.00;5080418;28;20572;-80
2021/11/16 07:13:08;;;;;;;19.70;10.50;;;6.60;99.90;;;7.42;100.00;98700.59;5070978;28;20444;-80
2021/11/16 07:15:38;;;;;;;20.33;10.70;;;6.50;99.90;;;7.36;100.00;98703.78;5067446;28;20925;-81
2021/11/16 07:18:07;;;;;;;26.03;11.50;;;6.40;99.90;;;7.36;100.00;98697.75;5071429;28;20456;-80
2021/11/16 07:20:36;;;;;;;21.77;11.40;;;6.60;99.90;;;7.36;100.00;98703.78;5073775;28;20869;-80
2021/11/16 07:23:12;;;;;;;24.37;11.80;;;6.60;99.90;;;7.31;100.00;98703.44;5074127;28;20506;-80
2021/11/16 07:25:41;;;;;;;22.40;10.63;;;6.50;99.90;;;7.25;100.00;98698.84;5073569;28;20944;-80
2021/11/16 07:28:11;;;;;;;23.50;10.50;;;6.40;99.90;;;7.26;100.00;98708.25;5071420;28;20486;-80
2021/11/16 07:30:40;;;;;;;22.40;11.53;;;6.50;99.90;;;7.30;100.00;98709.59;5074363;28;20491;-80
2021/11/16 07:33:11;;;;;;;26.80;13.77;;;6.50;99.90;;;7.33;100.00;98709.28;5067772;28;20956;-81
2021/11/16 07:35:41;;;;;;;27.33;13.60;;;6.50;99.90;;;7.33;100.00;98714.50;5072419;28;20489;-80
2021/11/16 07:38:13;;;;;;;27.50;14.73;;;6.60;99.90;;;7.36;100.00;98719.41;5073118;28;20944;-80
2021/11/16 07:40:45;;;;;;;24.77;13.03;;;6.60;99.90;;;7.39;100.00;98723.50;5073433;28;20462;-80
2021/11/16 07:43:17;;;;;;;25.93;12.80;;;6.70;99.90;;;7.41;100.00;98721.56;5073295;28;20952;-81
2021/11/16 07:45:49;;;;;;;24.40;12.07;;;6.60;99.90;;;7.39;100.00;98724.28;5071947;28;20534;-80
2021/11/16 07:48:20;;;;;;;26.07;12.53;;;6.60;99.90;;;7.39;100.00;98721.69;5079202;28;20437;-80
2021/11/16 07:50:55;;;;;;;26.63;12.33;;;6.60;99.90;;;7.38;100.00;98727.06;5073565;28;20932;-80
2021/11/16 07:53:30;;;;;;;27.80;13.13;;;6.60;99.90;;;7.37;100.00;98715.00;5072551;28;20538;-80
2021/11/16 07:56:03;;;;;;;24.97;12.40;;;6.60;99.90;;;7.35;100.00;98728.19;5073174;28;20565;-81
2021/11/16 07:58:36;;;;;;;24.50;12.03;;;6.60;99.90;;;7.36;100.00;98734.19;5073113;28;21035;-80
2021/11/16 08:01:10;;;;;;;29.77;13.63;;;6.50;99.90;;;7.37;100.00;98723.63;5071076;28;20475;-81
2021/11/16 08:03:44;;;;;;;27.73;11.87;;;6.60;99.90;;;7.39;100.00;98724.28;5069167;28;20444;-81
2021/11/16 08:06:21;;;;;;;24.73;11.60;;;6.60;99.90;;;7.38;100.00;98722.69;5071549;28;20453;-80
2021/11/16 08:09:10;;;;;;;24.57;11.47;;;6.50;99.90;;;7.39;100.00;98719.09;5072680;28;20518;-80
2021/11/16 08:11:42;;;;;;;22.87;11.63;;;6.60;99.90;;;7.40;100.00;98715.53;5070661;28;20456;-81
2021/11/16 08:14:15;;;;;;;19.50;10.97;;;6.60;99.90;;;7.38;100.00;98716.66;5072249;28;20440;-80
2021/11/16 08:16:57;;;;;;;24.03;12.10;;;6.50;99.90;;;7.31;100.00;98719.03;5069290;28;20786;-81
2021/11/16 08:19:28;;;;;;;23.10;11.17;;;6.50;99.90;;;7.27;100.00;98720.31;5066643;28;20465;-80
2021/11/16 08:21:59;;;;;;;24.80;12.10;;;6.40;99.90;;;7.27;100.00;98715.09;5069606;28;20800;-80
2021/11/16 08:24:31;;;;;;;21.97;11.73;;;6.50;99.90;;;7.23;100.00;98718.16;5072118;28;20494;-80
2021/11/16 08:27:02;;;;;;;24.13;12.17;;;6.40;99.90;;;7.24;100.00;98717.19;5072498;28;20444;-80
2021/11/16 08:29:36;;;;;;;24.90;12.50;;;6.40;99.90;;;7.24;100.00;98715.41;5068072;28;20508;-81
2021/11/16 08:32:10;;;;;;;24.43;12.67;;;6.50;99.90;;;7.26;100.00;98716.06;5072223;28;20959;-80
2021/11/16 08:34:43;;;;;;;31.63;12.53;;;6.50;99.90;;;7.28;100.00;98711.53;5072260;28;20464;-80
2021/11/16 08:37:13;;;;;;;30.13;14.97;;;6.50;99.90;;;7.31;100.00;98716.44;5069339;28;20452;-80
2021/11/16 08:39:47;;;;;;;21.97;12.03;;;6.50;99.90;;;7.34;100.00;98715.31;5072052;28;20440;-80
2021/11/16 08:42:22;;;;;;;24.00;10.80;;;6.50;99.90;;;7.35;100.00;98712.59;5064634;28;20851;-81
2021/11/16 08:45:00;;;;;;;19.47;10.80;;;6.60;99.90;;;7.35;100.00;98707.38;5071809;28;20440;-81
2021/11/16 08:47:35;;;;;;;24.10;12.27;;;6.60;99.90;;;7.37;100.00;98702.00;5075413;28;20454;-80
2021/11/16 08:50:07;;;;;;;18.43;10.27;;;6.50;99.90;;;7.38;100.00;98707.06;5073187;28;20912;-81
2021/11/16 08:52:37;;;;;;;20.57;11.27;;;6.60;99.90;;;7.34;100.00;98705.72;5072150;28;20472;-81
2021/11/16 08:55:10;;;;;;;25.77;10.97;;;6.60;99.90;;;7.32;100.00;98694.69;5067899;28;20952;-80
2021/11/16 08:57:45;;;;;;;26.70;10.90;;;6.50;99.90;;;7.33;100.00;98704.09;5071678;28;20460;-81
2021/11/16 09:00:24;;;;;;;20.97;10.47;;;6.50;99.90;;;7.36;100.00;98692.56;5068635;28;20468;-80
2021/11/16 09:03:03;;;;;;;24.13;11.30;;;6.50;99.90;;;7.36;100.00;98703.78;5066055;28;20819;-80
2021/11/16 09:05:35;;;;;;;22.13;10.83;;;6.50;99.90;;;7.36;100.00;98697.75;5071594;28;20497;-80
2021/11/16 09:08:08;;;;;;;25.43;11.97;;;6.50;99.90;;;7.35;100.00;98707.38;5071256;28;20937;-80
2021/11/16 09:10:41;;;;;;;23.10;11.83;;;6.50;99.90;;;7.36;100.00;98698.59;5066570;28;21000;-80
2021/11/16 09:13:12;;;;;;;20.33;12.70;;;6.50;99.90;;;7.35;100.00;98707.38;5069682;28;20459;-80
2021/11/16 09:15:46;;;;;;;26.53;11.70;;;6.50;99.90;;;7.38;100.00;98712.28;5080758;28;20444;-80
2021/11/16 09:18:20;;;;;;;25.30;12.47;;;6.50;99.90;;;7.36;100.00;98714.19;5071371;28;20543;-80
2021/11/16 09:21:00;;;;;;;23.40;10.70;;;6.60;99.90;;;7.32;100.00;98717.25;5067619;28;20448;-81
2021/11/16 09:23:33;;;;;;;31.17;11.17;;;6.60;99.90;;;7.35;100.00;98706.56;5071025;28;20456;-80
2021/11/16 09:26:17;;;;;;;17.20;9.97;;;6.60;99.90;;;7.36;100.00;98706.38;5065466;28;20930;-80
2021/11/16 09:28:53;;;;;;;22.30;10.50;;;6.60;99.90;;;7.36;100.00;98703.78;5069947;28;20885;-81
2021/11/16 09:31:30;;;;;;;20.37;9.97;;;6.50;99.90;;;7.34;100.00;98705.72;5071180;28;20499;-81
2021/11/16 09:34:21;;;;;;;21.90;9.73;;;6.50;99.90;;;7.35;100.00;98701.34;5070228;28;20444;-80
2021/11/16 09:36:57;;;;;;;19.57;9.67;;;6.50;99.90;;;7.35;100.00;98709.16;5071015;28;20467;-80
2021/11/16 09:39:30;;;;;;;19.90;10.70;;;6.60;99.90;;;7.35;100.00;98701.34;5070927;28;20448;-80
2021/11/16 09:42:01;;;;;;;23.00;10.33;;;6.60;99.90;;;7.31;100.00;98700.84;5067992;28;21030;-80
2021/11/16 09:44:34;;;;;;;25.30;10.93;;;6.50;99.90;;;7.34;100.00;98710.94;5069593;28;20448;-81
2021/11/16 09:47:12;;;;;;;18.50;10.00;;;6.50;99.90;;;7.37;100.00;98715.84;5069942;28;20475;-80
2021/11/16 09:49:44;;;;;;;19.00;9.60;;;6.60;99.90;;;7.40;100.00;98715.53;5070653;28;20448;-80
2021/11/16 09:52:16;;;;;;;18.67;9.90;;;6.60;99.90;;;7.40;100.00;98715.53;5079120;28;20464;-80
2021/11/16 09:54:54;;;;;;;23.57;11.23;;;6.60;99.90;;;7.43;100.00;98717.84;5065099;28;20448;-80
2021/11/16 09:57:26;;;;;;;23.00;10.83;;;6.70;99.90;;;7.44;100.00;98719.47;5077009;28;20955;-80
2021/11/16 10:00:06;;;;;;;22.03;9.57;;;6.70;99.90;;;7.44;100.00;98714.28;5068454;28;20479;-80
2021/11/16 10:02:39;;;;;;;16.03;8.30;;;6.70;99.90;;;7.45;100.00;98710.72;5066286;28;20521;-80
2021/11/16 10:05:16;;;;;;;24.60;9.30;;;6.70;99.90;;;7.45;100.00;98712.50;5070750;28;21010;-80
2021/11/16 10:07:44;;;;;;;24.27;10.70;;;6.70;99.90;;;7.46;100.00;98714.13;5065252;28;20605;-81
2021/11/16 10:10:14;;;;;;;19.80;9.30;;;6.70;99.90;;;7.47;100.00;98715.75;5073183;28;20480;-80
2021/11/16 10:12:47;;;;;;;22.57;9.80;;;6.60;99.90;;;7.48;100.00;98712.19;5070536;28;20517;-80
2021/11/16 10:15:20;;;;;;;20.30;10.27;;;6.70;99.90;;;7.49;100.00;98712.03;5070616;28;20510;-81
2021/11/16 10:17:53;;;;;;;21.43;8.83;;;6.70;99.90;;;7.43;100.00;98710.03;5069956;28;20889;-80
2021/11/16 10:20:25;;;;;;;17.00;8.90;;;6.70;99.90;;;7.43;100.00;98710.03;5070262;28;20964;-81
2021/11/16 10:23:18;;;;;;;14.63;8.53;;;6.60;99.90;;;7.43;100.00;98704.81;5076254;28;20471;-81
2021/11/16 10:25:56;;;;;;;17.53;8.67;;;6.60;99.90;;;7.41;100.00;98705.94;5078931;28;20471;-80
2021/11/16 10:28:26;;;;;;;15.90;8.30;;;6.60;99.90;;;7.43;100.00;98701.41;5066062;28;20972;-80
2021/11/16 10:30:58;;;;;;;19.73;9.47;;;6.60;99.90;;;7.43;100.00;98699.63;5069824;28;20548;-80
2021/11/16 10:33:34;;;;;;;16.07;8.73;;;6.60;99.90;;;7.48;100.00;98694.78;5073499;28;20523;-80
2021/11/16 10:36:08;;;;;;;18.50;8.70;;;6.60;99.90;;;7.49;100.00;98686.03;5071171;28;20542;-80